Time;durP1;ratioP1;P1;durP2;ratioP2;P2;SDS_P1;SDS_P2;PMS_P1;PMS_P2;Temp;Humidity;BMP_temperature;BMP_pressure;BME280_temperature;BME280_humidity;BME280_pressure;Samples;Min_cycle;Max_cycle;Signal;HPM_P1;HPM_P2
2021/12/16 00:02:10;;;;;;;12.02;8.88;;;8.10;99.90;;;;;;2097565;28;20119;-71
2021/12/16 00:08:00;;;;;;;11.73;8.93;;;8.00;99.90;;;;;;2097421;28;20507;-72
2021/12/16 00:09:06;;;;;;;11.05;8.45;;;8.00;99.90;;;;;;2088855;28;20099;-71
2021/12/16 00:11:26;;;;;;;12.50;9.30;;;8.00;99.90;;;;;;2097166;28;20032;-71
2021/12/16 00:30:06;;;;;;;12.30;9.02;;;8.00;99.90;;;;;;2097050;28;20032;-72
2021/12/16 00:31:21;;;;;;;11.82;8.85;;;8.00;99.90;;;;;;2096963;28;20032;-72
2021/12/16 00:33:45;;;;;;;11.82;8.90;;;8.00;99.90;;;;;;2091236;28;20029;-71
2021/12/16 00:34:47;;;;;;;14.70;9.20;;;8.00;99.90;;;;;;2096770;28;20028;-71
2021/12/16 00:35:51;;;;;;;11.77;8.95;;;8.00;99.90;;;;;;2096782;28;20021;-71
2021/12/16 00:36:52;;;;;;;12.15;9.30;;;8.00;99.90;;;;;;2097614;28;20086;-72
2021/12/16 00:37:52;;;;;;;13.15;9.77;;;8.00;99.90;;;;;;2096323;28;20025;-71
2021/12/16 00:38:54;;;;;;;13.43;9.38;;;8.00;99.90;;;;;;2096961;28;20437;-72
2021/12/16 00:39:55;;;;;;;13.43;9.60;;;8.00;99.90;;;;;;2096603;28;20426;-72
2021/12/16 00:40:56;;;;;;;13.07;9.20;;;8.00;99.90;;;;;;2096589;28;20028;-71
2021/12/16 00:42:06;;;;;;;13.20;9.10;;;8.00;99.90;;;;;;2096394;28;20044;-72
2021/12/16 00:43:19;;;;;;;12.35;9.02;;;8.00;99.90;;;;;;2089904;28;20086;-70
2021/12/16 00:48:59;;;;;;;12.90;9.45;;;8.00;99.90;;;;;;2090346;28;20025;-72
2021/12/16 00:49:34;;;;;;;13.43;9.25;;;8.00;99.90;;;;;;2096701;28;20040;-72
2021/12/16 00:54:17;;;;;;;14.27;10.52;;;8.00;99.90;;;;;;2096773;28;20028;-73
2021/12/16 00:55:39;;;;;;;13.40;10.05;;;8.00;99.90;;;;;;2096706;28;20020;-72
2021/12/16 00:56:49;;;;;;;14.63;9.75;;;8.00;99.90;;;;;;2096675;28;20067;-71
2021/12/16 00:57:52;;;;;;;13.48;9.88;;;8.00;99.90;;;;;;2095963;28;20153;-72
2021/12/16 00:58:56;;;;;;;13.15;9.55;;;8.00;99.90;;;;;;2088618;28;20024;-72
2021/12/16 01:00:00;;;;;;;12.98;9.90;;;8.00;99.90;;;;;;2096736;28;20492;-73
2021/12/16 01:01:16;;;;;;;12.43;9.23;;;8.00;99.90;;;;;;2096575;28;20074;-71
2021/12/16 01:06:10;;;;;;;13.43;9.95;;;8.00;99.90;;;;;;2096669;28;20036;-72
2021/12/16 01:09:09;;;;;;;13.73;10.18;;;8.00;99.90;;;;;;2096136;28;20115;-72
2021/12/16 01:35:07;;;;;;;15.55;10.80;;;7.90;99.90;;;;;;2096378;28;20411;-71
2021/12/16 01:40:03;;;;;;;17.05;10.93;;;7.90;99.90;;;;;;2087332;28;20059;-71
2021/12/16 01:46:37;;;;;;;15.25;10.45;;;7.90;99.90;;;;;;2096357;28;20086;-73
2021/12/16 01:50:06;;;;;;;15.73;10.73;;;8.00;99.90;;;;;;2096320;28;20075;-73
2021/12/16 01:53:07;;;;;;;15.25;10.35;;;7.90;99.90;;;;;;2087608;28;20127;-72
2021/12/16 01:55:48;;;;;;;15.32;10.52;;;7.90;99.90;;;;;;2089377;28;20040;-73
2021/12/16 01:57:11;;;;;;;17.00;10.50;;;7.90;99.90;;;;;;2096386;28;20062;-72
2021/12/16 01:58:19;;;;;;;16.60;10.98;;;7.90;99.90;;;;;;2095880;28;20025;-72
2021/12/16 01:59:23;;;;;;;15.73;10.80;;;7.90;99.90;;;;;;2080576;28;20047;-73
2021/12/16 02:00:45;;;;;;;15.43;10.70;;;7.90;99.90;;;;;;2080631;28;20494;-72
2021/12/16 02:01:46;;;;;;;17.17;10.52;;;7.90;99.90;;;;;;2090450;28;20112;-72
2021/12/16 02:02:51;;;;;;;16.23;10.88;;;7.90;99.90;;;;;;2088119;28;20188;-73
2021/12/16 02:03:55;;;;;;;16.17;10.43;;;7.90;99.90;;;;;;2096478;28;20021;-73
2021/12/16 02:05:19;;;;;;;13.95;9.90;;;7.90;99.90;;;;;;2097019;28;20476;-72
2021/12/16 02:08:57;;;;;;;16.13;10.80;;;7.90;99.90;;;;;;2096404;28;20376;-73
2021/12/16 02:10:03;;;;;;;15.32;10.57;;;7.80;99.90;;;;;;2096208;28;20056;-73
2021/12/16 02:11:28;;;;;;;15.93;10.88;;;7.80;99.90;;;;;;2088586;28;20021;-72
2021/12/16 02:12:51;;;;;;;15.95;11.02;;;7.90;99.90;;;;;;2091458;28;20591;-72
2021/12/16 02:30:34;;;;;;;18.02;11.20;;;7.80;99.90;;;;;;2098452;28;20029;-72
2021/12/16 02:31:32;;;;;;;13.90;10.13;;;7.80;99.90;;;;;;2098549;28;20112;-72
2021/12/16 02:32:49;;;;;;;16.63;10.85;;;7.80;99.90;;;;;;2097877;28;20399;-73
2021/12/16 02:37:22;;;;;;;15.95;11.05;;;7.80;99.90;;;;;;2097841;28;20856;-73
2021/12/16 02:38:29;;;;;;;16.17;10.50;;;7.80;99.90;;;;;;2089897;28;20028;-73
2021/12/16 02:39:34;;;;;;;15.30;10.85;;;7.80;99.90;;;;;;2098182;28;20103;-72
2021/12/16 02:40:36;;;;;;;15.32;11.30;;;7.80;99.90;;;;;;2090366;28;20029;-73
2021/12/16 02:41:40;;;;;;;15.13;10.63;;;7.80;99.90;;;;;;2089607;28;20033;-72
2021/12/16 02:42:56;;;;;;;17.30;11.27;;;7.80;99.90;;;;;;2082802;28;20100;-73
2021/12/16 02:49:13;;;;;;;16.95;11.18;;;7.90;99.90;;;;;;2097900;28;20086;-73
2021/12/16 02:50:15;;;;;;;18.45;11.38;;;7.90;99.90;;;;;;2098363;28;20028;-72
2021/12/16 02:51:26;;;;;;;15.90;11.23;;;7.90;99.90;;;;;;2099202;28;20029;-72
2021/12/16 02:52:27;;;;;;;16.80;11.02;;;7.90;99.90;;;;;;2098521;28;20032;-73
2021/12/16 02:53:29;;;;;;;15.55;11.02;;;7.90;99.90;;;;;;2090161;28;20590;-74
2021/12/16 02:54:29;;;;;;;14.32;10.07;;;7.90;99.90;;;;;;2099669;28;20029;-72
2021/12/16 02:55:30;;;;;;;15.27;10.32;;;7.90;99.90;;;;;;2098943;28;20033;-72
2021/12/16 02:56:31;;;;;;;16.27;11.23;;;7.90;99.90;;;;;;2091687;28;20033;-73
2021/12/16 02:57:38;;;;;;;16.38;11.60;;;7.90;99.90;;;;;;2090319;28;20029;-72
2021/12/16 02:58:41;;;;;;;16.98;11.02;;;7.90;99.90;;;;;;2099642;28;20136;-72
2021/12/16 02:59:43;;;;;;;16.88;11.50;;;7.90;99.90;;;;;;2099086;28;20025;-72
2021/12/16 03:00:47;;;;;;;16.90;11.10;;;7.90;99.90;;;;;;2090676;28;20119;-72
2021/12/16 03:01:51;;;;;;;17.67;11.93;;;7.80;99.90;;;;;;2090427;28;20426;-72
2021/12/16 03:02:53;;;;;;;16.98;11.63;;;7.90;99.90;;;;;;2090056;28;20139;-72
2021/12/16 03:03:56;;;;;;;17.17;11.20;;;7.90;99.90;;;;;;2098093;28;20036;-72
2021/12/16 03:04:56;;;;;;;18.58;11.10;;;7.90;99.90;;;;;;2097772;28;20064;-72
2021/12/16 03:06:00;;;;;;;18.05;12.40;;;7.80;99.90;;;;;;2097531;28;20029;-72
2021/12/16 03:07:01;;;;;;;18.23;12.55;;;7.90;99.90;;;;;;2097565;28;20027;-72
2021/12/16 03:08:04;;;;;;;17.20;12.40;;;7.80;99.90;;;;;;2088998;28;20507;-72
2021/12/16 03:09:08;;;;;;;18.13;11.70;;;7.90;99.90;;;;;;2097623;28;20115;-72
2021/12/16 03:11:32;;;;;;;18.55;12.40;;;7.80;99.90;;;;;;2097624;28;20039;-73
2021/12/16 03:14:25;;;;;;;20.02;12.80;;;7.80;99.90;;;;;;2097657;28;20040;-71
2021/12/16 03:16:52;;;;;;;17.55;12.00;;;7.80;99.90;;;;;;2097754;28;20463;-72
2021/12/16 03:19:14;;;;;;;19.85;13.15;;;7.80;99.90;;;;;;2097684;28;20059;-73
2021/12/16 03:20:29;;;;;;;19.85;13.13;;;7.80;99.90;;;;;;2098250;28;20107;-72
2021/12/16 03:21:35;;;;;;;20.27;12.75;;;7.80;99.90;;;;;;2097106;28;20384;-72
2021/12/16 03:24:25;;;;;;;21.15;14.05;;;7.80;99.90;;;;;;2097632;28;20515;-72
2021/12/16 03:25:24;;;;;;;22.13;14.18;;;7.80;99.90;;;;;;2097030;28;20515;-71
2021/12/16 03:34:30;;;;;;;25.70;15.60;;;7.80;99.90;;;;;;2097940;28;20099;-72
2021/12/16 03:35:38;;;;;;;25.77;15.23;;;7.80;99.90;;;;;;2097164;28;20028;-72
2021/12/16 03:37:12;;;;;;;29.25;15.70;;;7.80;99.90;;;;;;2097443;28;20108;-71
2021/12/16 03:38:13;;;;;;;26.55;16.05;;;7.80;99.90;;;;;;2096722;28;20029;-72
2021/12/16 03:39:16;;;;;;;27.77;16.38;;;7.80;99.90;;;;;;2089005;28;20033;-71
2021/12/16 03:40:17;;;;;;;25.02;15.38;;;7.80;99.90;;;;;;2096484;28;20039;-72
2021/12/16 03:41:19;;;;;;;26.83;15.73;;;7.80;99.90;;;;;;2096876;28;20028;-71
2021/12/16 03:42:32;;;;;;;23.88;15.82;;;7.80;99.90;;;;;;2088831;28;20033;-72
2021/12/16 03:43:36;;;;;;;24.52;15.77;;;7.80;99.90;;;;;;2097300;28;20081;-73
2021/12/16 03:44:57;;;;;;;27.10;15.98;;;7.80;99.90;;;;;;2089697;28;20033;-72
2021/12/16 03:47:18;;;;;;;28.63;16.33;;;7.70;99.90;;;;;;2091004;28;20068;-71
2021/12/16 03:48:37;;;;;;;28.55;16.73;;;7.80;99.90;;;;;;2096861;28;20051;-70
2021/12/16 03:49:39;;;;;;;29.88;17.95;;;7.80;99.90;;;;;;2091605;28;20076;-72
2021/12/16 03:50:41;;;;;;;29.52;17.52;;;7.80;99.90;;;;;;2089297;28;20036;-72
2021/12/16 03:51:47;;;;;;;30.60;17.95;;;7.70;99.90;;;;;;2096938;28;20031;-73
2021/12/16 03:52:49;;;;;;;28.77;17.60;;;7.70;99.90;;;;;;2088931;28;20021;-72
2021/12/16 03:53:53;;;;;;;28.52;17.60;;;7.70;99.90;;;;;;2080933;28;20029;-72
2021/12/16 03:54:59;;;;;;;28.38;17.80;;;7.70;99.90;;;;;;2090013;28;20054;-72
2021/12/16 03:56:01;;;;;;;30.60;18.50;;;7.70;99.90;;;;;;2097169;28;20040;-72
2021/12/16 03:57:11;;;;;;;30.40;18.67;;;7.70;99.90;;;;;;2097115;28;20033;-73
2021/12/16 03:58:14;;;;;;;31.38;19.10;;;7.70;99.90;;;;;;2089111;28;20036;-72
2021/12/16 03:59:25;;;;;;;29.92;18.27;;;7.70;99.90;;;;;;2089452;28;20025;-72
2021/12/16 04:00:35;;;;;;;32.55;19.40;;;7.70;99.90;;;;;;2088899;28;20039;-72
2021/12/16 04:01:36;;;;;;;30.65;18.45;;;7.70;99.90;;;;;;2089222;28;20033;-72
2021/12/16 04:02:37;;;;;;;33.92;20.05;;;7.60;99.90;;;;;;2096881;28;20032;-72
2021/12/16 04:03:39;;;;;;;32.92;19.38;;;7.70;99.90;;;;;;2096997;28;20059;-72
2021/12/16 04:04:41;;;;;;;32.25;19.67;;;7.70;99.90;;;;;;2088772;28;20524;-73
2021/12/16 04:05:43;;;;;;;31.20;19.10;;;7.70;99.90;;;;;;2097101;28;20936;-71
2021/12/16 04:06:45;;;;;;;32.75;19.40;;;7.70;99.90;;;;;;2088820;28;20112;-72
2021/12/16 04:07:48;;;;;;;31.25;19.15;;;7.70;99.90;;;;;;2080693;28;20757;-72
2021/12/16 04:08:54;;;;;;;32.35;19.88;;;7.70;99.90;;;;;;2089601;28;20103;-72
2021/12/16 04:09:56;;;;;;;35.20;19.88;;;7.70;99.90;;;;;;2089085;28;20036;-71
2021/12/16 04:11:06;;;;;;;33.58;19.65;;;7.70;99.90;;;;;;2080806;28;20642;-71
2021/12/16 04:12:19;;;;;;;32.30;19.85;;;7.70;99.90;;;;;;2090497;28;20549;-73
2021/12/16 04:13:20;;;;;;;33.67;20.35;;;7.60;99.90;;;;;;2089565;28;20017;-72
2021/12/16 04:14:26;;;;;;;33.33;19.73;;;7.70;99.90;;;;;;2089571;28;20460;-73
2021/12/16 04:15:27;;;;;;;37.45;20.75;;;7.70;99.90;;;;;;2088845;28;20021;-72
2021/12/16 04:16:41;;;;;;;34.33;20.50;;;7.70;99.90;;;;;;2097074;28;20020;-71
2021/12/16 04:17:45;;;;;;;33.33;20.02;;;7.70;99.90;;;;;;2090474;28;20060;-72
2021/12/16 04:18:46;;;;;;;35.08;21.08;;;7.70;99.90;;;;;;2089060;28;20059;-71
2021/12/16 04:19:48;;;;;;;36.60;21.42;;;7.60;99.90;;;;;;2097297;28;20491;-70
2021/12/16 04:20:49;;;;;;;35.47;20.48;;;7.60;99.90;;;;;;2089049;28;20087;-71
2021/12/16 04:21:53;;;;;;;38.92;21.55;;;7.70;99.90;;;;;;2088323;28;20555;-71
2021/12/16 04:22:55;;;;;;;38.25;22.35;;;7.70;99.90;;;;;;2081006;28;20026;-71
2021/12/16 04:23:58;;;;;;;37.70;21.73;;;7.60;99.90;;;;;;2081127;28;20017;-72
2021/12/16 04:25:04;;;;;;;37.20;21.92;;;7.60;99.90;;;;;;2088840;28;20037;-71
2021/12/16 04:26:06;;;;;;;37.20;22.30;;;7.70;99.90;;;;;;2088735;28;20028;-71
2021/12/16 04:27:08;;;;;;;37.60;22.30;;;7.70;99.90;;;;;;2080780;28;20755;-72
2021/12/16 04:28:20;;;;;;;39.78;22.83;;;7.60;99.90;;;;;;2088636;28;20434;-71
2021/12/16 04:29:23;;;;;;;41.42;22.65;;;7.70;99.90;;;;;;2090197;28;20024;-70
2021/12/16 04:30:26;;;;;;;41.92;23.30;;;7.70;99.90;;;;;;2097179;28;20043;-70
2021/12/16 04:31:28;;;;;;;37.17;22.52;;;7.70;99.90;;;;;;2096567;28;20527;-70
2021/12/16 04:32:28;;;;;;;39.10;22.42;;;7.70;99.90;;;;;;2088546;28;20108;-70
2021/12/16 04:33:29;;;;;;;39.58;22.63;;;7.70;99.90;;;;;;2088634;28;20017;-70
2021/12/16 04:34:31;;;;;;;38.90;23.15;;;7.70;99.90;;;;;;2088603;28;20492;-70
2021/12/16 04:35:33;;;;;;;39.25;22.00;;;7.70;99.90;;;;;;2088736;28;20044;-70
2021/12/16 04:36:34;;;;;;;41.97;23.15;;;7.70;99.90;;;;;;2088504;28;20033;-70
2021/12/16 04:37:35;;;;;;;36.95;22.30;;;7.70;99.90;;;;;;2096715;28;20078;-70
2021/12/16 04:38:38;;;;;;;36.90;21.48;;;7.70;99.90;;;;;;2088673;28;20084;-71
2021/12/16 04:39:41;;;;;;;37.20;22.13;;;7.70;99.90;;;;;;2088552;28;20043;-70
2021/12/16 04:40:45;;;;;;;35.28;21.50;;;7.70;99.90;;;;;;2089160;28;20041;-70
2021/12/16 04:41:46;;;;;;;37.30;22.40;;;7.70;99.90;;;;;;2096697;28;20091;-70
2021/12/16 04:42:49;;;;;;;35.42;21.35;;;7.70;99.90;;;;;;2089036;28;20067;-71
2021/12/16 04:43:54;;;;;;;37.70;22.85;;;7.70;99.90;;;;;;2097251;28;20503;-70
2021/12/16 04:44:55;;;;;;;42.45;23.38;;;7.70;99.90;;;;;;2089560;28;20060;-70
2021/12/16 04:45:57;;;;;;;36.15;22.13;;;7.70;99.90;;;;;;2088964;28;20468;-72
2021/12/16 04:47:02;;;;;;;39.35;23.25;;;7.70;99.90;;;;;;2089189;28;20116;-71
2021/12/16 04:48:04;;;;;;;39.08;23.17;;;7.70;99.90;;;;;;2096468;28;20028;-71
2021/12/16 04:49:09;;;;;;;37.28;22.52;;;7.70;99.90;;;;;;2089282;28;20182;-72
2021/12/16 04:50:14;;;;;;;39.47;22.70;;;7.70;99.90;;;;;;2089294;28;20056;-70
2021/12/16 04:51:16;;;;;;;43.75;23.95;;;7.70;99.90;;;;;;2088581;28;20029;-71
2021/12/16 04:52:18;;;;;;;37.50;22.33;;;7.80;99.90;;;;;;2088251;28;20029;-74
2021/12/16 04:53:19;;;;;;;40.90;23.20;;;7.70;99.90;;;;;;2089947;28;20084;-73
2021/12/16 04:54:27;;;;;;;35.33;22.30;;;7.80;99.90;;;;;;2091700;28;20270;-71
2021/12/16 04:55:28;;;;;;;37.72;22.67;;;7.80;99.90;;;;;;2094767;28;20033;-71
2021/12/16 04:56:29;;;;;;;38.47;22.85;;;7.80;99.90;;;;;;2090665;28;20382;-72
2021/12/16 04:57:37;;;;;;;37.75;22.42;;;7.80;99.90;;;;;;2088391;28;20025;-72
2021/12/16 04:58:41;;;;;;;38.58;23.13;;;7.80;99.90;;;;;;2081647;28;20025;-72
2021/12/16 04:59:43;;;;;;;36.63;22.42;;;7.80;99.90;;;;;;2089110;28;20779;-72
2021/12/16 05:00:43;;;;;;;38.78;22.92;;;7.80;99.90;;;;;;2097135;28;20022;-72
2021/12/16 05:02:20;;;;;;;38.22;22.50;;;7.80;99.90;;;;;;2096837;28;20032;-72
2021/12/16 05:03:43;;;;;;;42.25;23.80;;;7.80;99.90;;;;;;2096906;28;20029;-71
2021/12/16 05:04:44;;;;;;;41.72;24.42;;;7.80;99.90;;;;;;2096891;28;20529;-72
2021/12/16 05:05:45;;;;;;;41.45;24.92;;;7.80;99.90;;;;;;2096642;28;20479;-72
2021/12/16 05:06:46;;;;;;;44.55;25.70;;;7.80;99.90;;;;;;2088563;28;20496;-72
2021/12/16 05:07:48;;;;;;;42.08;25.45;;;7.80;99.90;;;;;;2088183;28;20503;-72
2021/12/16 05:08:59;;;;;;;42.90;25.13;;;7.80;99.90;;;;;;2081871;28;20034;-71
2021/12/16 05:10:10;;;;;;;45.38;25.10;;;7.80;99.90;;;;;;2083445;28;20101;-73
2021/12/16 05:11:14;;;;;;;43.03;25.40;;;7.80;99.90;;;;;;2097182;28;20483;-70
2021/12/16 05:12:21;;;;;;;40.38;23.63;;;7.80;99.90;;;;;;2089371;28;20066;-70
2021/12/16 05:13:25;;;;;;;41.88;24.17;;;7.70;99.90;;;;;;2097210;28;20021;-70
2021/12/16 05:14:26;;;;;;;37.80;23.38;;;7.70;99.90;;;;;;2096895;28;20032;-72
2021/12/16 05:15:33;;;;;;;42.70;25.52;;;7.70;99.90;;;;;;2088952;28;20049;-69
2021/12/16 05:16:35;;;;;;;43.97;26.17;;;7.70;99.90;;;;;;2088737;28;20052;-70
2021/12/16 05:17:42;;;;;;;45.78;26.33;;;7.70;99.90;;;;;;2080822;28;20022;-70
2021/12/16 05:18:45;;;;;;;40.53;24.65;;;7.70;99.90;;;;;;2081362;28;20112;-70
2021/12/16 05:19:49;;;;;;;45.80;25.80;;;7.60;99.90;;;;;;2081055;28;20014;-70
2021/12/16 05:20:52;;;;;;;42.08;25.65;;;7.60;99.90;;;;;;2089402;28;20083;-70
2021/12/16 05:21:59;;;;;;;43.13;25.67;;;7.60;99.90;;;;;;2096661;28;20111;-71
2021/12/16 05:24:26;;;;;;;;;;;7.60;99.90;;;;;;2097715;28;20025;-71
2021/12/16 05:27:06;;;;;;;48.97;26.00;;;7.60;99.90;;;;;;2097294;28;20032;-70
2021/12/16 05:28:07;;;;;;;43.00;24.58;;;7.60;99.90;;;;;;2096694;28;20056;-71
2021/12/16 05:29:09;;;;;;;45.97;25.42;;;7.60;99.90;;;;;;2089014;28;20029;-71
2021/12/16 05:30:11;;;;;;;43.55;25.30;;;7.60;99.90;;;;;;2089200;28;20029;-70
2021/12/16 05:31:16;;;;;;;40.65;24.48;;;7.60;99.90;;;;;;2089433;28;20040;-71
2021/12/16 05:32:23;;;;;;;42.00;23.98;;;7.60;99.90;;;;;;2090060;28;20066;-72
2021/12/16 05:33:25;;;;;;;38.25;22.95;;;7.60;99.90;;;;;;2097247;28;20035;-71
2021/12/16 05:34:26;;;;;;;49.53;26.35;;;7.60;99.90;;;;;;2097460;28;20033;-71
2021/12/16 05:35:30;;;;;;;44.25;25.35;;;7.60;99.90;;;;;;2097077;28;20441;-70
2021/12/16 05:36:37;;;;;;;44.80;26.48;;;7.60;99.90;;;;;;2097946;28;20056;-73
2021/12/16 05:37:43;;;;;;;46.78;26.63;;;7.60;99.90;;;;;;2096842;28;20759;-72
2021/12/16 05:38:44;;;;;;;43.22;25.70;;;7.60;99.90;;;;;;2082508;28;20048;-71
2021/12/16 05:39:48;;;;;;;45.75;26.35;;;7.60;99.90;;;;;;2081616;28;20037;-70
2021/12/16 05:41:06;;;;;;;41.75;24.02;;;7.60;99.90;;;;;;2091977;28;20092;-71
2021/12/16 05:42:11;;;;;;;46.30;26.98;;;7.60;99.90;;;;;;2089411;28;20029;-70
2021/12/16 05:43:31;;;;;;;47.85;27.05;;;7.60;99.90;;;;;;2089487;28;20086;-71
2021/12/16 05:44:42;;;;;;;47.78;26.95;;;7.60;99.90;;;;;;2092659;28;20117;-69
2021/12/16 05:45:44;;;;;;;48.13;26.92;;;7.60;99.90;;;;;;2096812;28;20048;-70
2021/12/16 05:46:46;;;;;;;45.38;25.60;;;7.60;99.90;;;;;;2096743;28;20163;-70
2021/12/16 05:47:47;;;;;;;45.63;26.60;;;7.60;99.90;;;;;;2087697;28;20068;-70
2021/12/16 05:48:49;;;;;;;46.58;26.40;;;7.60;99.90;;;;;;2096648;28;20090;-71
2021/12/16 05:49:50;;;;;;;46.75;25.48;;;7.70;99.90;;;;;;2096493;28;20070;-71
2021/12/16 05:50:55;;;;;;;46.33;26.23;;;7.70;99.90;;;;;;2088358;28;20063;-70
2021/12/16 05:51:56;;;;;;;42.55;25.42;;;7.70;99.90;;;;;;2088633;28;20074;-70
2021/12/16 05:52:57;;;;;;;47.28;26.25;;;7.70;99.90;;;;;;2088222;28;20029;-70
2021/12/16 05:54:00;;;;;;;45.40;25.95;;;7.70;99.90;;;;;;2088231;28;20033;-71
2021/12/16 05:55:20;;;;;;;43.42;25.00;;;7.70;99.90;;;;;;2091118;28;20451;-71
2021/12/16 05:56:41;;;;;;;46.30;26.27;;;7.70;99.90;;;;;;2087769;28;20123;-71
2021/12/16 05:57:44;;;;;;;46.70;26.75;;;7.70;99.90;;;;;;2093088;28;20031;-70
2021/12/16 05:58:47;;;;;;;46.22;26.10;;;7.70;99.90;;;;;;2102621;28;20021;-70
2021/12/16 05:59:48;;;;;;;46.47;27.00;;;7.70;99.90;;;;;;2094842;28;20101;-72
2021/12/16 06:00:59;;;;;;;45.95;26.70;;;7.70;99.90;;;;;;2090867;28;20029;-71
2021/12/16 06:02:02;;;;;;;44.70;25.92;;;7.70;99.90;;;;;;2088275;28;20044;-71
2021/12/16 06:03:08;;;;;;;46.20;26.58;;;7.70;99.90;;;;;;2081849;28;20036;-71
2021/12/16 06:04:10;;;;;;;45.55;26.08;;;7.70;99.90;;;;;;2089456;28;20086;-70
2021/12/16 06:05:12;;;;;;;45.30;25.88;;;7.70;99.90;;;;;;2098510;28;20052;-70
2021/12/16 06:06:15;;;;;;;42.42;25.63;;;7.70;99.90;;;;;;2089647;28;20025;-70
2021/12/16 06:07:15;;;;;;;41.95;25.40;;;7.70;99.90;;;;;;2090077;28;20043;-72
2021/12/16 06:08:20;;;;;;;44.35;25.60;;;7.70;99.90;;;;;;2089563;28;20029;-71
2021/12/16 06:09:23;;;;;;;41.35;25.42;;;7.80;99.90;;;;;;2090409;28;20156;-72
2021/12/16 06:11:32;;;;;;;47.42;26.58;;;7.70;99.90;;;;;;2090677;28;20029;-72
2021/12/16 06:12:33;;;;;;;46.03;26.27;;;7.80;99.90;;;;;;2098771;28;20103;-72
2021/12/16 06:13:41;;;;;;;43.45;25.67;;;7.80;99.90;;;;;;2098222;28;20032;-72
2021/12/16 06:14:57;;;;;;;43.50;25.58;;;7.80;99.90;;;;;;2098249;28;20554;-71
2021/12/16 06:26:24;;;;;;;44.90;24.50;;;7.90;99.90;;;;;;2097694;28;20579;-71
2021/12/16 06:27:10;;;;;;;42.58;24.70;;;7.90;99.90;;;;;;2080775;28;20790;-71
2021/12/16 06:28:11;;;;;;;44.17;24.60;;;7.90;99.90;;;;;;2072301;28;20026;-70
2021/12/16 06:29:12;;;;;;;43.25;25.50;;;7.90;99.90;;;;;;2069932;28;20058;-72
2021/12/16 06:30:17;;;;;;;45.20;24.60;;;7.90;99.90;;;;;;2097947;28;20516;-71
2021/12/16 06:31:18;;;;;;;43.67;25.77;;;7.90;99.90;;;;;;2098504;28;20070;-72
2021/12/16 06:32:19;;;;;;;41.00;24.38;;;7.90;99.90;;;;;;2098142;28;20029;-72
2021/12/16 06:33:25;;;;;;;44.20;25.08;;;7.90;99.90;;;;;;2097670;28;20407;-71
2021/12/16 06:34:25;;;;;;;44.38;25.23;;;7.90;99.90;;;;;;2097969;28;20119;-72
2021/12/16 06:35:27;;;;;;;43.17;25.13;;;7.90;99.90;;;;;;2098493;28;20028;-72
2021/12/16 06:36:29;;;;;;;43.33;25.48;;;7.90;99.90;;;;;;2097854;28;20115;-72
2021/12/16 06:37:30;;;;;;;40.45;24.83;;;7.90;99.90;;;;;;2097893;28;20029;-72
2021/12/16 06:38:31;;;;;;;48.15;26.33;;;7.90;99.90;;;;;;2097273;28;20053;-72
2021/12/16 06:39:54;;;;;;;45.75;26.50;;;7.90;99.90;;;;;;2092483;28;20395;-71
2021/12/16 06:41:18;;;;;;;47.08;25.92;;;7.90;99.90;;;;;;2092761;28;20056;-72
2021/12/16 06:42:48;;;;;;;46.13;26.10;;;7.90;99.90;;;;;;2093333;28;20133;-71
2021/12/16 06:43:53;;;;;;;45.20;26.08;;;7.90;99.90;;;;;;2089896;28;20113;-72
2021/12/16 06:45:02;;;;;;;45.13;26.25;;;7.90;99.90;;;;;;2097932;28;20040;-71
2021/12/16 06:46:07;;;;;;;41.55;25.60;;;7.90;99.90;;;;;;2098074;28;20028;-71
2021/12/16 06:47:13;;;;;;;44.97;25.88;;;7.90;99.90;;;;;;2097997;28;20443;-72
2021/12/16 06:48:19;;;;;;;44.88;26.10;;;7.90;99.90;;;;;;2097590;28;20125;-72
2021/12/16 06:49:21;;;;;;;44.05;26.02;;;7.80;99.90;;;;;;2098892;28;20070;-72
2021/12/16 06:50:37;;;;;;;46.47;25.85;;;7.90;99.90;;;;;;2090005;28;20499;-72
2021/12/16 06:51:47;;;;;;;43.13;25.45;;;7.80;99.90;;;;;;2093495;28;20048;-72
2021/12/16 06:52:49;;;;;;;42.45;25.00;;;7.80;99.90;;;;;;2101536;28;20508;-71
2021/12/16 06:54:02;;;;;;;43.70;25.27;;;7.80;99.90;;;;;;2102293;28;20029;-72
2021/12/16 06:56:08;;;;;;;42.75;25.23;;;7.80;99.90;;;;;;2099223;28;20024;-72
2021/12/16 06:56:43;;;;;;;45.83;25.33;;;7.80;99.90;;;;;;2097966;28;20097;-72
2021/12/16 06:57:51;;;;;;;43.47;25.35;;;7.80;99.90;;;;;;2097607;28;20044;-72
2021/12/16 06:59:05;;;;;;;46.45;25.45;;;7.80;99.90;;;;;;2098074;28;20028;-72
2021/12/16 07:00:14;;;;;;;42.42;24.85;;;7.80;99.90;;;;;;2098326;28;20040;-72
2021/12/16 07:01:37;;;;;;;41.47;25.35;;;7.80;99.90;;;;;;2097789;28;20043;-72
2021/12/16 07:03:49;;;;;;;42.10;24.30;;;7.80;99.90;;;;;;2098477;28;20047;-71
2021/12/16 07:04:49;;;;;;;42.40;24.90;;;7.90;99.90;;;;;;2098190;28;20042;-71
2021/12/16 07:05:53;;;;;;;41.03;24.83;;;7.90;99.90;;;;;;2097800;28;20048;-71
2021/12/16 07:07:06;;;;;;;44.30;24.85;;;7.90;99.90;;;;;;2098126;28;20496;-71
2021/12/16 07:08:20;;;;;;;42.22;24.35;;;7.90;99.90;;;;;;2098682;28;20453;-73
2021/12/16 07:09:24;;;;;;;44.78;24.23;;;7.90;99.90;;;;;;2089754;28;20048;-71
2021/12/16 07:10:25;;;;;;;40.55;24.60;;;7.90;99.90;;;;;;2089773;28;20036;-71
2021/12/16 07:11:26;;;;;;;41.17;24.90;;;7.90;99.90;;;;;;2098461;28;20029;-72
2021/12/16 07:12:35;;;;;;;46.17;25.63;;;7.90;99.90;;;;;;2098568;28;20116;-71
2021/12/16 07:13:40;;;;;;;40.85;24.65;;;7.90;99.90;;;;;;2089436;28;20128;-71
2021/12/16 07:14:41;;;;;;;43.05;25.50;;;7.90;99.90;;;;;;2090275;28;20075;-72
2021/12/16 07:15:42;;;;;;;41.55;24.95;;;7.90;99.90;;;;;;2098491;28;20137;-72
2021/12/16 07:16:45;;;;;;;42.17;24.77;;;7.90;99.90;;;;;;2098637;28;20099;-72
2021/12/16 07:17:47;;;;;;;42.90;25.70;;;8.00;99.90;;;;;;2097936;28;20466;-72
2021/12/16 07:18:47;;;;;;;41.20;24.70;;;8.00;99.90;;;;;;2098000;28;20040;-73
2021/12/16 07:19:48;;;;;;;41.08;24.85;;;8.00;99.90;;;;;;2091481;28;20252;-73
2021/12/16 07:20:49;;;;;;;41.08;25.17;;;8.00;99.90;;;;;;2092257;28;20159;-72
2021/12/16 07:21:49;;;;;;;42.72;25.90;;;8.00;99.90;;;;;;2098080;28;20028;-72
2021/12/16 07:22:50;;;;;;;44.15;25.65;;;8.00;99.90;;;;;;2099164;28;20105;-71
2021/12/16 07:23:52;;;;;;;43.53;25.33;;;8.00;99.90;;;;;;2099666;28;20039;-72
2021/12/16 07:24:52;;;;;;;43.25;25.52;;;8.00;99.90;;;;;;2099051;28;20036;-73
2021/12/16 07:25:53;;;;;;;41.85;25.25;;;8.00;99.90;;;;;;2099223;28;20123;-71
2021/12/16 07:26:54;;;;;;;46.03;26.90;;;8.00;99.90;;;;;;2099396;28;20036;-72
2021/12/16 07:27:55;;;;;;;42.45;25.13;;;8.00;99.90;;;;;;2090162;28;20048;-71
2021/12/16 07:28:56;;;;;;;44.72;26.00;;;8.00;99.90;;;;;;2099297;28;20103;-70
2021/12/16 07:29:56;;;;;;;45.63;25.92;;;8.00;99.90;;;;;;2099610;28;20265;-72
2021/12/16 07:30:58;;;;;;;46.85;26.92;;;8.00;99.90;;;;;;2107446;28;20020;-72
2021/12/16 07:32:01;;;;;;;46.20;25.10;;;8.00;99.90;;;;;;2098386;28;20028;-74
2021/12/16 07:33:03;;;;;;;45.10;26.33;;;8.00;99.90;;;;;;2097680;28;20039;-74
2021/12/16 07:34:04;;;;;;;42.88;26.02;;;8.10;99.90;;;;;;2097654;28;20025;-72
2021/12/16 07:35:09;;;;;;;46.65;25.30;;;8.10;99.90;;;;;;2098359;28;20174;-71
2021/12/16 07:36:10;;;;;;;46.60;26.55;;;8.10;99.90;;;;;;2100345;28;20036;-71
2021/12/16 07:37:10;;;;;;;42.85;25.65;;;8.00;99.90;;;;;;2100359;28;20101;-70
2021/12/16 07:38:12;;;;;;;49.03;26.10;;;8.00;99.90;;;;;;2098782;28;20044;-71
2021/12/16 07:39:17;;;;;;;45.38;25.98;;;8.10;99.90;;;;;;2090511;28;20116;-73
2021/12/16 07:40:22;;;;;;;44.97;25.73;;;8.10;99.90;;;;;;2090753;28;20036;-73
2021/12/16 07:41:31;;;;;;;45.55;25.70;;;8.10;99.90;;;;;;2098687;28;20901;-77
2021/12/16 07:42:43;;;;;;;42.63;25.00;;;8.10;99.90;;;;;;2090397;28;20021;-76
2021/12/16 07:44:56;;;;;;;46.17;26.77;;;8.00;99.90;;;;;;2100101;28;20032;-75
2021/12/16 07:45:57;;;;;;;46.65;26.63;;;8.00;99.90;;;;;;2098395;28;20028;-74
2021/12/16 07:47:03;;;;;;;46.53;26.75;;;8.10;99.90;;;;;;2098232;28;20060;-75
2021/12/16 07:48:05;;;;;;;43.33;25.20;;;8.10;99.90;;;;;;2098617;28;20024;-74
2021/12/16 07:49:07;;;;;;;47.97;26.52;;;8.00;99.90;;;;;;2098764;28;20072;-74
2021/12/16 07:50:09;;;;;;;45.92;25.73;;;8.00;99.90;;;;;;2098936;28;20025;-75
2021/12/16 07:51:10;;;;;;;45.25;25.70;;;8.10;99.90;;;;;;2106801;28;20070;-76
2021/12/16 07:52:15;;;;;;;46.72;26.17;;;8.00;99.90;;;;;;2106447;28;20028;-75
2021/12/16 07:53:16;;;;;;;45.40;27.50;;;8.10;99.90;;;;;;2099073;28;20020;-75
2021/12/16 07:54:18;;;;;;;46.20;27.40;;;8.00;99.90;;;;;;2098161;28;20093;-75
2021/12/16 07:55:22;;;;;;;45.60;26.65;;;8.00;99.90;;;;;;2098342;28;20028;-75
2021/12/16 07:56:23;;;;;;;45.28;26.73;;;8.10;99.90;;;;;;2099216;28;20038;-75
2021/12/16 07:57:23;;;;;;;48.63;28.40;;;8.00;99.90;;;;;;2101720;28;20039;-76